sensor_id;sensor_type;location;lat;lon;timestamp;temperature;humidity
1455;DHT22;721;48.168;12.818;2023-03-11T00:02:03;4.30;7.10
1455;DHT22;721;48.168;12.818;2023-03-11T00:04:30;4.30;7.40
1455;DHT22;721;48.168;12.818;2023-03-11T00:06:57;4.40;9.70
1455;DHT22;721;48.168;12.818;2023-03-11T00:09:24;4.30;10.20
1455;DHT22;721;48.168;12.818;2023-03-11T00:11:50;4.30;8.40
1455;DHT22;721;48.168;12.818;2023-03-11T00:14:17;4.10;6.20
1455;DHT22;721;48.168;12.818;2023-03-11T00:16:45;4.00;5.90
1455;DHT22;721;48.168;12.818;2023-03-11T00:19:12;4.00;4.30
1455;DHT22;721;48.168;12.818;2023-03-11T00:21:39;4.00;4.50
1455;DHT22;721;48.168;12.818;2023-03-11T00:24:06;3.90;6.20
1455;DHT22;721;48.168;12.818;2023-03-11T00:26:33;3.80;7.70
1455;DHT22;721;48.168;12.818;2023-03-11T00:28:59;3.70;7.70
1455;DHT22;721;48.168;12.818;2023-03-11T00:31:26;3.70;8.50
1455;DHT22;721;48.168;12.818;2023-03-11T00:33:54;3.50;8.30
1455;DHT22;721;48.168;12.818;2023-03-11T00:36:26;3.40;8.00
1455;DHT22;721;48.168;12.818;2023-03-11T00:38:56;3.40;8.80
1455;DHT22;721;48.168;12.818;2023-03-11T00:41:23;3.40;7.60
1455;DHT22;721;48.168;12.818;2023-03-11T00:43:50;3.40;7.80
1455;DHT22;721;48.168;12.818;2023-03-11T00:46:16;3.30;7.50
1455;DHT22;721;48.168;12.818;2023-03-11T00:48:43;3.30;7.60
1455;DHT22;721;48.168;12.818;2023-03-11T00:51:13;3.30;6.80
1455;DHT22;721;48.168;12.818;2023-03-11T00:53:41;3.20;6.70
1455;DHT22;721;48.168;12.818;2023-03-11T00:56:08;3.20;6.70
1455;DHT22;721;48.168;12.818;2023-03-11T00:58:36;3.20;6.70
1455;DHT22;721;48.168;12.818;2023-03-11T01:01:06;3.10;7.40
1455;DHT22;721;48.168;12.818;2023-03-11T01:03:33;3.10;6.60
1455;DHT22;721;48.168;12.818;2023-03-11T01:06:00;3.10;6.60
1455;DHT22;721;48.168;12.818;2023-03-11T01:08:28;3.10;7.10
1455;DHT22;721;48.168;12.818;2023-03-11T01:10:56;3.00;6.60
1455;DHT22;721;48.168;12.818;2023-03-11T01:13:23;3.00;5.80
1455;DHT22;721;48.168;12.818;2023-03-11T01:15:51;2.90;3.70
1455;DHT22;721;48.168;12.818;2023-03-11T01:18:17;2.90;3.20
1455;DHT22;721;48.168;12.818;2023-03-11T01:20:45;2.80;2.60
1455;DHT22;721;48.168;12.818;2023-03-11T01:23:13;2.80;1.80
1455;DHT22;721;48.168;12.818;2023-03-11T01:25:42;2.80;2.10
1455;DHT22;721;48.168;12.818;2023-03-11T01:28:08;2.70;2.10
1455;DHT22;721;48.168;12.818;2023-03-11T01:30:36;2.70;1.70
1455;DHT22;721;48.168;12.818;2023-03-11T01:33:04;2.70;1.90
1455;DHT22;721;48.168;12.818;2023-03-11T01:35:31;2.70;2.20
1455;DHT22;721;48.168;12.818;2023-03-11T01:37:58;2.70;1.90
1455;DHT22;721;48.168;12.818;2023-03-11T01:40:28;2.70;1.50
1455;DHT22;721;48.168;12.818;2023-03-11T01:42:57;2.80;1.60
1455;DHT22;721;48.168;12.818;2023-03-11T01:48:28;2.70;1.00
1455;DHT22;721;48.168;12.818;2023-03-11T01:50:55;2.70;1.00
1455;DHT22;721;48.168;12.818;2023-03-11T01:53:23;2.70;1.20
1455;DHT22;721;48.168;12.818;2023-03-11T01:55:50;2.70;1.00
1455;DHT22;721;48.168;12.818;2023-03-11T01:58:21;2.60;1.00
1455;DHT22;721;48.168;12.818;2023-03-11T02:00:49;2.60;1.00
1455;DHT22;721;48.168;12.818;2023-03-11T02:03:18;2.60;1.00
1455;DHT22;721;48.168;12.818;2023-03-11T02:05:46;2.50;1.00
1455;DHT22;721;48.168;12.818;2023-03-11T02:08:14;2.50;1.00
1455;DHT22;721;48.168;12.818;2023-03-11T02:10:41;2.50;1.00
1455;DHT22;721;48.168;12.818;2023-03-11T02:13:09;2.50;1.00
1455;DHT22;721;48.168;12.818;2023-03-11T02:15:38;2.40;1.10
1455;DHT22;721;48.168;12.818;2023-03-11T02:18:06;2.40;1.50
1455;DHT22;721;48.168;12.818;2023-03-11T02:20:39;2.50;1.50
1455;DHT22;721;48.168;12.818;2023-03-11T02:23:08;2.50;1.70
1455;DHT22;721;48.168;12.818;2023-03-11T02:25:40;2.50;2.10
1455;DHT22;721;48.168;12.818;2023-03-11T02:28:11;2.50;2.90
1455;DHT22;721;48.168;12.818;2023-03-11T02:30:41;2.40;3.30
1455;DHT22;721;48.168;12.818;2023-03-11T02:33:08;2.40;3.00
1455;DHT22;721;48.168;12.818;2023-03-11T02:35:36;2.30;3.60
1455;DHT22;721;48.168;12.818;2023-03-11T02:38:02;2.40;3.80
1455;DHT22;721;48.168;12.818;2023-03-11T02:40:48;2.40;4.30
1455;DHT22;721;48.168;12.818;2023-03-11T02:43:20;2.40;4.60
1455;DHT22;721;48.168;12.818;2023-03-11T02:45:48;2.30;4.60
1455;DHT22;721;48.168;12.818;2023-03-11T02:48:15;2.30;5.50
1455;DHT22;721;48.168;12.818;2023-03-11T02:50:43;2.30;4.80
1455;DHT22;721;48.168;12.818;2023-03-11T02:53:11;2.20;4.80
1455;DHT22;721;48.168;12.818;2023-03-11T02:55:38;2.20;3.90
1455;DHT22;721;48.168;12.818;2023-03-11T02:58:05;2.20;2.90
1455;DHT22;721;48.168;12.818;2023-03-11T03:00:33;2.20;1.60
1455;DHT22;721;48.168;12.818;2023-03-11T03:03:00;2.20;1.20
1455;DHT22;721;48.168;12.818;2023-03-11T03:05:27;2.10;1.30
1455;DHT22;721;48.168;12.818;2023-03-11T03:07:53;2.10;1.00
1455;DHT22;721;48.168;12.818;2023-03-11T03:10:20;2.10;1.00
1455;DHT22;721;48.168;12.818;2023-03-11T03:12:47;2.00;1.00
1455;DHT22;721;48.168;12.818;2023-03-11T03:15:14;2.00;1.00
1455;DHT22;721;48.168;12.818;2023-03-11T03:17:42;2.00;1.00
1455;DHT22;721;48.168;12.818;2023-03-11T03:20:11;2.00;1.00
1455;DHT22;721;48.168;12.818;2023-03-11T03:22:39;2.00;1.00
1455;DHT22;721;48.168;12.818;2023-03-11T03:25:07;1.90;1.00
1455;DHT22;721;48.168;12.818;2023-03-11T03:27:34;1.90;1.00
1455;DHT22;721;48.168;12.818;2023-03-11T03:30:01;1.90;1.00
1455;DHT22;721;48.168;12.818;2023-03-11T03:32:27;1.90;1.00
1455;DHT22;721;48.168;12.818;2023-03-11T03:34:56;1.90;1.00
1455;DHT22;721;48.168;12.818;2023-03-11T03:37:25;1.90;1.00
1455;DHT22;721;48.168;12.818;2023-03-11T03:39:52;1.90;1.00
1455;DHT22;721;48.168;12.818;2023-03-11T03:42:19;1.90;1.00
1455;DHT22;721;48.168;12.818;2023-03-11T03:44:46;1.80;1.00
1455;DHT22;721;48.168;12.818;2023-03-11T03:47:13;1.80;1.00
1455;DHT22;721;48.168;12.818;2023-03-11T03:49:40;1.80;1.00
1455;DHT22;721;48.168;12.818;2023-03-11T03:52:08;1.60;1.00
1455;DHT22;721;48.168;12.818;2023-03-11T03:54:35;1.80;1.00
1455;DHT22;721;48.168;12.818;2023-03-11T03:57:02;1.80;1.00
1455;DHT22;721;48.168;12.818;2023-03-11T03:59:30;1.70;1.00
1455;DHT22;721;48.168;12.818;2023-03-11T04:01:56;1.70;1.00
1455;DHT22;721;48.168;12.818;2023-03-11T04:04:23;1.70;1.00
1455;DHT22;721;48.168;12.818;2023-03-11T04:06:50;1.70;1.00
1455;DHT22;721;48.168;12.818;2023-03-11T04:09:19;1.70;1.00
1455;DHT22;721;48.168;12.818;2023-03-11T04:11:46;1.60;1.00
1455;DHT22;721;48.168;12.818;2023-03-11T04:14:13;1.70;1.00
1455;DHT22;721;48.168;12.818;2023-03-11T04:16:40;1.60;1.00
1455;DHT22;721;48.168;12.818;2023-03-11T04:19:07;1.60;1.00
1455;DHT22;721;48.168;12.818;2023-03-11T04:21:34;1.60;1.00
1455;DHT22;721;48.168;12.818;2023-03-11T04:24:01;1.60;1.00
1455;DHT22;721;48.168;12.818;2023-03-11T04:26:29;1.60;1.00
1455;DHT22;721;48.168;12.818;2023-03-11T04:28:56;1.60;1.00
1455;DHT22;721;48.168;12.818;2023-03-11T04:31:23;1.60;1.00
1455;DHT22;721;48.168;12.818;2023-03-11T04:33:49;1.60;1.00
1455;DHT22;721;48.168;12.818;2023-03-11T04:36:16;1.60;1.00
1455;DHT22;721;48.168;12.818;2023-03-11T04:38:43;1.60;1.00
1455;DHT22;721;48.168;12.818;2023-03-11T04:41:11;1.50;1.00
1455;DHT22;721;48.168;12.818;2023-03-11T04:43:39;1.50;1.00
1455;DHT22;721;48.168;12.818;2023-03-11T04:46:06;1.50;1.00
1455;DHT22;721;48.168;12.818;2023-03-11T04:48:32;1.50;1.00
1455;DHT22;721;48.168;12.818;2023-03-11T04:50:59;1.50;1.00
1455;DHT22;721;48.168;12.818;2023-03-11T04:53:26;1.60;1.00
1455;DHT22;721;48.168;12.818;2023-03-11T04:55:53;1.50;1.00
1455;DHT22;721;48.168;12.818;2023-03-11T04:58:20;1.50;1.00
1455;DHT22;721;48.168;12.818;2023-03-11T05:00:48;1.50;1.00
1455;DHT22;721;48.168;12.818;2023-03-11T05:03:14;1.50;1.00
1455;DHT22;721;48.168;12.818;2023-03-11T05:05:41;1.50;1.00
1455;DHT22;721;48.168;12.818;2023-03-11T05:08:08;1.50;1.00
1455;DHT22;721;48.168;12.818;2023-03-11T05:10:35;1.60;1.00
1455;DHT22;721;48.168;12.818;2023-03-11T05:13:02;1.50;1.00
1455;DHT22;721;48.168;12.818;2023-03-11T05:15:28;1.50;1.00
1455;DHT22;721;48.168;12.818;2023-03-11T05:17:57;1.50;1.00
1455;DHT22;721;48.168;12.818;2023-03-11T05:20:24;1.40;1.00
1455;DHT22;721;48.168;12.818;2023-03-11T05:22:51;1.40;1.00
1455;DHT22;721;48.168;12.818;2023-03-11T05:25:18;1.50;1.00
1455;DHT22;721;48.168;12.818;2023-03-11T05:27:44;1.40;1.00
1455;DHT22;721;48.168;12.818;2023-03-11T05:30:11;1.40;1.00
1455;DHT22;721;48.168;12.818;2023-03-11T05:32:39;1.40;1.00
1455;DHT22;721;48.168;12.818;2023-03-11T05:35:08;1.40;1.00
1455;DHT22;721;48.168;12.818;2023-03-11T05:37:35;1.40;1.00
1455;DHT22;721;48.168;12.818;2023-03-11T05:40:04;1.40;1.00
1455;DHT22;721;48.168;12.818;2023-03-11T05:42:32;1.50;1.00
1455;DHT22;721;48.168;12.818;2023-03-11T05:44:59;1.40;1.00
1455;DHT22;721;48.168;12.818;2023-03-11T05:47:25;1.50;1.00
1455;DHT22;721;48.168;12.818;2023-03-11T05:49:52;1.50;1.00
1455;DHT22;721;48.168;12.818;2023-03-11T05:52:20;1.60;1.00
1455;DHT22;721;48.168;12.818;2023-03-11T05:54:48;1.60;1.00
1455;DHT22;721;48.168;12.818;2023-03-11T05:57:15;1.60;1.00
1455;DHT22;721;48.168;12.818;2023-03-11T05:59:42;1.60;1.00
1455;DHT22;721;48.168;12.818;2023-03-11T06:02:09;1.70;1.00
1455;DHT22;721;48.168;12.818;2023-03-11T06:04:36;1.70;1.00
1455;DHT22;721;48.168;12.818;2023-03-11T06:07:03;1.70;1.00
1455;DHT22;721;48.168;12.818;2023-03-11T06:09:32;1.80;1.00
1455;DHT22;721;48.168;12.818;2023-03-11T06:12:01;1.70;1.00
1455;DHT22;721;48.168;12.818;2023-03-11T06:14:28;1.70;1.00
1455;DHT22;721;48.168;12.818;2023-03-11T06:16:56;1.70;1.00
1455;DHT22;721;48.168;12.818;2023-03-11T06:19:23;1.60;1.00
1455;DHT22;721;48.168;12.818;2023-03-11T06:21:50;1.60;1.00
1455;DHT22;721;48.168;12.818;2023-03-11T06:24:17;1.60;1.00
1455;DHT22;721;48.168;12.818;2023-03-11T06:26:45;1.60;1.00
1455;DHT22;721;48.168;12.818;2023-03-11T06:29:13;1.50;1.00
1455;DHT22;721;48.168;12.818;2023-03-11T06:31:40;1.50;1.00
1455;DHT22;721;48.168;12.818;2023-03-11T06:34:08;1.50;1.00
1455;DHT22;721;48.168;12.818;2023-03-11T06:36:36;1.50;1.00
1455;DHT22;721;48.168;12.818;2023-03-11T06:39:03;1.50;1.00
1455;DHT22;721;48.168;12.818;2023-03-11T06:41:32;1.50;1.00
1455;DHT22;721;48.168;12.818;2023-03-11T06:44:00;1.50;1.00
1455;DHT22;721;48.168;12.818;2023-03-11T06:46:28;1.50;1.00
1455;DHT22;721;48.168;12.818;2023-03-11T06:48:56;1.50;1.00
1455;DHT22;721;48.168;12.818;2023-03-11T06:51:22;1.50;1.00
1455;DHT22;721;48.168;12.818;2023-03-11T06:53:50;1.50;1.00
1455;DHT22;721;48.168;12.818;2023-03-11T06:56:18;1.50;1.00
1455;DHT22;721;48.168;12.818;2023-03-11T06:58:46;1.40;1.00
1455;DHT22;721;48.168;12.818;2023-03-11T07:01:15;1.40;1.00
1455;DHT22;721;48.168;12.818;2023-03-11T07:03:42;1.40;1.00
1455;DHT22;721;48.168;12.818;2023-03-11T07:06:12;1.40;1.00
1455;DHT22;721;48.168;12.818;2023-03-11T07:08:39;1.40;1.00
1455;DHT22;721;48.168;12.818;2023-03-11T07:11:08;1.40;1.00
1455;DHT22;721;48.168;12.818;2023-03-11T07:13:36;1.50;1.00
1455;DHT22;721;48.168;12.818;2023-03-11T07:16:04;1.40;1.00
1455;DHT22;721;48.168;12.818;2023-03-11T07:18:33;1.40;1.00
1455;DHT22;721;48.168;12.818;2023-03-11T07:21:00;1.40;1.00
1455;DHT22;721;48.168;12.818;2023-03-11T07:23:27;1.40;1.00
1455;DHT22;721;48.168;12.818;2023-03-11T07:25:54;1.30;1.00
1455;DHT22;721;48.168;12.818;2023-03-11T07:28:21;1.20;1.00
1455;DHT22;721;48.168;12.818;2023-03-11T07:30:48;1.30;1.00
1455;DHT22;721;48.168;12.818;2023-03-11T07:33:19;1.40;1.00
1455;DHT22;721;48.168;12.818;2023-03-11T07:35:48;1.40;1.00
1455;DHT22;721;48.168;12.818;2023-03-11T07:38:15;1.80;1.00
1455;DHT22;721;48.168;12.818;2023-03-11T07:40:42;2.00;1.00
1455;DHT22;721;48.168;12.818;2023-03-11T07:43:10;2.10;1.00
1455;DHT22;721;48.168;12.818;2023-03-11T07:45:36;2.20;1.00
1455;DHT22;721;48.168;12.818;2023-03-11T07:48:04;2.20;1.00
1455;DHT22;721;48.168;12.818;2023-03-11T07:50:30;2.20;1.00
1455;DHT22;721;48.168;12.818;2023-03-11T07:52:59;2.10;1.00
1455;DHT22;721;48.168;12.818;2023-03-11T07:55:25;2.10;1.00
1455;DHT22;721;48.168;12.818;2023-03-11T07:57:52;2.20;1.00
1455;DHT22;721;48.168;12.818;2023-03-11T08:00:19;2.20;1.00
1455;DHT22;721;48.168;12.818;2023-03-11T08:02:46;2.00;1.00
1455;DHT22;721;48.168;12.818;2023-03-11T08:05:13;2.00;1.00
1455;DHT22;721;48.168;12.818;2023-03-11T08:07:40;2.00;1.00
1455;DHT22;721;48.168;12.818;2023-03-11T08:10:10;2.00;1.00
1455;DHT22;721;48.168;12.818;2023-03-11T08:12:37;2.00;1.00
1455;DHT22;721;48.168;12.818;2023-03-11T08:15:04;2.10;1.00
1455;DHT22;721;48.168;12.818;2023-03-11T08:17:31;2.20;1.00
1455;DHT22;721;48.168;12.818;2023-03-11T08:19:57;2.10;1.00
1455;DHT22;721;48.168;12.818;2023-03-11T08:22:24;2.20;1.00
1455;DHT22;721;48.168;12.818;2023-03-11T08:24:51;2.00;1.00
1455;DHT22;721;48.168;12.818;2023-03-11T08:27:20;1.90;1.00
1455;DHT22;721;48.168;12.818;2023-03-11T08:29:47;1.90;1.00
1455;DHT22;721;48.168;12.818;2023-03-11T08:32:14;1.70;1.00
1455;DHT22;721;48.168;12.818;2023-03-11T08:34:41;1.60;1.00
1455;DHT22;721;48.168;12.818;2023-03-11T08:37:07;1.80;1.00
1455;DHT22;721;48.168;12.818;2023-03-11T08:39:34;1.80;1.00
1455;DHT22;721;48.168;12.818;2023-03-11T08:42:01;2.00;1.00
1455;DHT22;721;48.168;12.818;2023-03-11T08:44:29;2.00;1.00
1455;DHT22;721;48.168;12.818;2023-03-11T08:46:56;2.10;1.00
1455;DHT22;721;48.168;12.818;2023-03-11T08:49:23;2.20;1.00
1455;DHT22;721;48.168;12.818;2023-03-11T08:51:50;2.30;1.00
1455;DHT22;721;48.168;12.818;2023-03-11T08:54:16;2.20;1.00
1455;DHT22;721;48.168;12.818;2023-03-11T08:56:43;2.10;1.00
1455;DHT22;721;48.168;12.818;2023-03-11T08:59:12;2.00;1.00
1455;DHT22;721;48.168;12.818;2023-03-11T09:01:40;2.10;1.00
1455;DHT22;721;48.168;12.818;2023-03-11T09:04:07;2.10;1.00
1455;DHT22;721;48.168;12.818;2023-03-11T09:06:34;2.20;1.00
1455;DHT22;721;48.168;12.818;2023-03-11T09:09:02;2.40;1.00
1455;DHT22;721;48.168;12.818;2023-03-11T09:11:29;2.50;1.00
1455;DHT22;721;48.168;12.818;2023-03-11T09:13:55;2.50;1.00
1455;DHT22;721;48.168;12.818;2023-03-11T09:16:22;2.70;1.00
1455;DHT22;721;48.168;12.818;2023-03-11T09:18:51;2.90;1.00
1455;DHT22;721;48.168;12.818;2023-03-11T09:21:18;3.60;1.00
1455;DHT22;721;48.168;12.818;2023-03-11T09:23:45;3.40;1.00
1455;DHT22;721;48.168;12.818;2023-03-11T09:26:13;3.30;1.00
1455;DHT22;721;48.168;12.818;2023-03-11T09:28:40;3.40;1.00
1455;DHT22;721;48.168;12.818;2023-03-11T09:31:08;3.20;1.00
1455;DHT22;721;48.168;12.818;2023-03-11T09:33:39;3.10;1.00
1455;DHT22;721;48.168;12.818;2023-03-11T09:36:12;2.90;1.00
1455;DHT22;721;48.168;12.818;2023-03-11T09:38:40;3.00;1.00
1455;DHT22;721;48.168;12.818;2023-03-11T09:41:12;3.10;1.00
1455;DHT22;721;48.168;12.818;2023-03-11T09:43:50;3.30;1.00
1455;DHT22;721;48.168;12.818;2023-03-11T09:46:35;3.20;1.00
1455;DHT22;721;48.168;12.818;2023-03-11T09:49:13;3.20;1.00
1455;DHT22;721;48.168;12.818;2023-03-11T09:51:52;3.30;1.00
1455;DHT22;721;48.168;12.818;2023-03-11T09:54:22;3.20;1.00
1455;DHT22;721;48.168;12.818;2023-03-11T09:56:49;3.10;1.00
1455;DHT22;721;48.168;12.818;2023-03-11T09:59:20;3.10;1.00
1455;DHT22;721;48.168;12.818;2023-03-11T10:01:51;3.00;1.00
1455;DHT22;721;48.168;12.818;2023-03-11T10:04:22;3.00;1.00
1455;DHT22;721;48.168;12.818;2023-03-11T10:06:53;3.00;1.00
1455;DHT22;721;48.168;12.818;2023-03-11T10:09:30;3.00;1.00
1455;DHT22;721;48.168;12.818;2023-03-11T10:12:05;3.10;1.00
1455;DHT22;721;48.168;12.818;2023-03-11T10:14:47;3.20;1.00
1455;DHT22;721;48.168;12.818;2023-03-11T10:17:27;3.30;1.00
1455;DHT22;721;48.168;12.818;2023-03-11T10:20:04;3.40;1.00
1455;DHT22;721;48.168;12.818;2023-03-11T10:22:40;3.40;1.00
1455;DHT22;721;48.168;12.818;2023-03-11T10:25:13;3.40;1.00
1455;DHT22;721;48.168;12.818;2023-03-11T10:27:44;3.30;1.00
1455;DHT22;721;48.168;12.818;2023-03-11T10:30:19;3.20;1.00
1455;DHT22;721;48.168;12.818;2023-03-11T10:32:52;3.10;1.00
1455;DHT22;721;48.168;12.818;2023-03-11T10:35:22;3.20;1.00
1455;DHT22;721;48.168;12.818;2023-03-11T10:37:53;3.30;1.00
1455;DHT22;721;48.168;12.818;2023-03-11T10:40:29;3.30;1.00
1455;DHT22;721;48.168;12.818;2023-03-11T10:42:58;3.00;1.00
1455;DHT22;721;48.168;12.818;2023-03-11T10:45:28;2.90;1.00
1455;DHT22;721;48.168;12.818;2023-03-11T10:47:57;3.00;1.00
1455;DHT22;721;48.168;12.818;2023-03-11T10:50:24;3.30;1.00
1455;DHT22;721;48.168;12.818;2023-03-11T10:53:06;3.60;1.00
1455;DHT22;721;48.168;12.818;2023-03-11T10:55:34;3.50;1.00
1455;DHT22;721;48.168;12.818;2023-03-11T10:58:09;3.40;1.00
1455;DHT22;721;48.168;12.818;2023-03-11T11:00:37;3.30;1.00
1455;DHT22;721;48.168;12.818;2023-03-11T11:03:04;3.20;1.00
1455;DHT22;721;48.168;12.818;2023-03-11T11:05:38;3.20;1.00
1455;DHT22;721;48.168;12.818;2023-03-11T11:08:11;3.20;1.00
1455;DHT22;721;48.168;12.818;2023-03-11T11:10:48;3.30;1.00
1455;DHT22;721;48.168;12.818;2023-03-11T11:13:17;3.30;1.00
1455;DHT22;721;48.168;12.818;2023-03-11T11:15:57;3.50;1.00
1455;DHT22;721;48.168;12.818;2023-03-11T11:18:26;3.40;1.00
1455;DHT22;721;48.168;12.818;2023-03-11T11:20:59;3.50;1.00
1455;DHT22;721;48.168;12.818;2023-03-11T11:23:32;3.70;1.00
1455;DHT22;721;48.168;12.818;2023-03-11T11:26:01;4.00;1.00
1455;DHT22;721;48.168;12.818;2023-03-11T11:28:29;4.20;1.00
1455;DHT22;721;48.168;12.818;2023-03-11T11:30:58;4.40;1.00
1455;DHT22;721;48.168;12.818;2023-03-11T11:33:28;4.60;1.00
1455;DHT22;721;48.168;12.818;2023-03-11T11:35:56;4.50;1.00
1455;DHT22;721;48.168;12.818;2023-03-11T11:38:26;4.40;1.00
1455;DHT22;721;48.168;12.818;2023-03-11T11:40:55;4.10;1.00
1455;DHT22;721;48.168;12.818;2023-03-11T11:43:33;3.90;1.00
1455;DHT22;721;48.168;12.818;2023-03-11T11:46:05;3.90;1.00
1455;DHT22;721;48.168;12.818;2023-03-11T11:48:43;3.90;1.00
1455;DHT22;721;48.168;12.818;2023-03-11T11:51:17;4.10;1.00
1455;DHT22;721;48.168;12.818;2023-03-11T11:53:49;4.20;1.00
1455;DHT22;721;48.168;12.818;2023-03-11T11:56:19;4.30;1.00
1455;DHT22;721;48.168;12.818;2023-03-11T11:58:49;4.20;1.00
1455;DHT22;721;48.168;12.818;2023-03-11T12:01:22;4.10;1.00
1455;DHT22;721;48.168;12.818;2023-03-11T12:04:32;4.20;1.00
1455;DHT22;721;48.168;12.818;2023-03-11T12:07:20;4.40;1.00
1455;DHT22;721;48.168;12.818;2023-03-11T12:09:58;4.70;1.00
1455;DHT22;721;48.168;12.818;2023-03-11T12:12:31;4.50;1.00
1455;DHT22;721;48.168;12.818;2023-03-11T12:15:03;4.30;1.00
1455;DHT22;721;48.168;12.818;2023-03-11T12:17:35;4.30;1.00
1455;DHT22;721;48.168;12.818;2023-03-11T12:20:07;4.40;1.00
1455;DHT22;721;48.168;12.818;2023-03-11T12:22:52;4.60;1.00
1455;DHT22;721;48.168;12.818;2023-03-11T12:25:26;4.70;1.00
1455;DHT22;721;48.168;12.818;2023-03-11T12:28:01;5.00;1.00
1455;DHT22;721;48.168;12.818;2023-03-11T12:30:35;5.10;1.00
1455;DHT22;721;48.168;12.818;2023-03-11T12:33:06;5.20;1.00
1455;DHT22;721;48.168;12.818;2023-03-11T12:35:37;5.10;1.00
1455;DHT22;721;48.168;12.818;2023-03-11T12:38:13;4.80;1.00
1455;DHT22;721;48.168;12.818;2023-03-11T12:40:46;4.40;1.00
1455;DHT22;721;48.168;12.818;2023-03-11T12:43:26;4.40;1.00
1455;DHT22;721;48.168;12.818;2023-03-11T12:45:55;4.50;1.00
1455;DHT22;721;48.168;12.818;2023-03-11T12:48:31;4.60;1.00
1455;DHT22;721;48.168;12.818;2023-03-11T12:50:58;4.90;1.00
1455;DHT22;721;48.168;12.818;2023-03-11T12:53:41;5.10;1.00
1455;DHT22;721;48.168;12.818;2023-03-11T12:56:15;5.30;1.00
1455;DHT22;721;48.168;12.818;2023-03-11T12:59:09;5.60;1.00
1455;DHT22;721;48.168;12.818;2023-03-11T13:02:01;5.90;1.00
1455;DHT22;721;48.168;12.818;2023-03-11T13:04:45;6.00;1.00
1455;DHT22;721;48.168;12.818;2023-03-11T13:07:38;5.60;1.00
1455;DHT22;721;48.168;12.818;2023-03-11T13:10:23;5.20;1.00
1455;DHT22;721;48.168;12.818;2023-03-11T13:12:59;5.30;1.00
1455;DHT22;721;48.168;12.818;2023-03-11T13:15:33;5.60;1.00
1455;DHT22;721;48.168;12.818;2023-03-11T13:18:02;5.70;1.00
1455;DHT22;721;48.168;12.818;2023-03-11T13:20:49;5.60;1.00
1455;DHT22;721;48.168;12.818;2023-03-11T13:23:27;5.80;1.00
1455;DHT22;721;48.168;12.818;2023-03-11T13:26:26;6.00;1.00
1455;DHT22;721;48.168;12.818;2023-03-11T13:29:13;6.00;1.00
1455;DHT22;721;48.168;12.818;2023-03-11T13:32:08;5.40;1.00
1455;DHT22;721;48.168;12.818;2023-03-11T13:34:42;5.20;1.00
1455;DHT22;721;48.168;12.818;2023-03-11T13:37:22;5.40;1.00
1455;DHT22;721;48.168;12.818;2023-03-11T13:40:03;5.70;1.00
1455;DHT22;721;48.168;12.818;2023-03-11T13:42:42;5.60;1.00
1455;DHT22;721;48.168;12.818;2023-03-11T13:45:20;5.80;1.00
1455;DHT22;721;48.168;12.818;2023-03-11T13:47:50;5.70;1.00
1455;DHT22;721;48.168;12.818;2023-03-11T13:50:23;5.50;1.00
1455;DHT22;721;48.168;12.818;2023-03-11T13:52:52;5.50;1.00
1455;DHT22;721;48.168;12.818;2023-03-11T13:55:22;5.50;1.00
1455;DHT22;721;48.168;12.818;2023-03-11T13:57:51;5.40;1.00
1455;DHT22;721;48.168;12.818;2023-03-11T14:00:21;5.50;1.00
1455;DHT22;721;48.168;12.818;2023-03-11T14:02:52;5.70;1.00
1455;DHT22;721;48.168;12.818;2023-03-11T14:05:23;5.90;1.00
1455;DHT22;721;48.168;12.818;2023-03-11T14:07:51;6.10;1.00
1455;DHT22;721;48.168;12.818;2023-03-11T14:10:27;6.00;1.00
1455;DHT22;721;48.168;12.818;2023-03-11T14:13:05;5.80;1.00
1455;DHT22;721;48.168;12.818;2023-03-11T14:15:41;6.00;1.00
1455;DHT22;721;48.168;12.818;2023-03-11T14:18:27;6.00;1.00
1455;DHT22;721;48.168;12.818;2023-03-11T14:20:55;6.20;1.00
1455;DHT22;721;48.168;12.818;2023-03-11T14:23:25;6.40;1.00
1455;DHT22;721;48.168;12.818;2023-03-11T14:25:58;6.40;1.00
1455;DHT22;721;48.168;12.818;2023-03-11T14:28:30;6.10;1.00
1455;DHT22;721;48.168;12.818;2023-03-11T14:30:58;5.80;1.00
1455;DHT22;721;48.168;12.818;2023-03-11T14:33:27;5.80;1.00
1455;DHT22;721;48.168;12.818;2023-03-11T14:35:55;5.60;1.00
1455;DHT22;721;48.168;12.818;2023-03-11T14:38:24;5.60;1.00
1455;DHT22;721;48.168;12.818;2023-03-11T14:40:53;5.50;1.00
1455;DHT22;721;48.168;12.818;2023-03-11T14:43:20;5.40;1.00
1455;DHT22;721;48.168;12.818;2023-03-11T14:45:48;5.60;1.00
1455;DHT22;721;48.168;12.818;2023-03-11T14:48:20;5.90;1.00
1455;DHT22;721;48.168;12.818;2023-03-11T14:50:51;6.10;1.00
1455;DHT22;721;48.168;12.818;2023-03-11T14:53:22;6.50;1.00
1455;DHT22;721;48.168;12.818;2023-03-11T14:55:54;6.60;1.00
1455;DHT22;721;48.168;12.818;2023-03-11T14:58:26;6.90;1.00
1455;DHT22;721;48.168;12.818;2023-03-11T15:00:56;7.10;1.00
1455;DHT22;721;48.168;12.818;2023-03-11T15:03:26;6.90;1.00
1455;DHT22;721;48.168;12.818;2023-03-11T15:05:58;6.60;1.00
1455;DHT22;721;48.168;12.818;2023-03-11T15:08:30;6.60;1.00
1455;DHT22;721;48.168;12.818;2023-03-11T15:11:17;6.30;1.00
1455;DHT22;721;48.168;12.818;2023-03-11T15:13:46;6.20;1.00
1455;DHT22;721;48.168;12.818;2023-03-11T15:16:24;6.10;1.00
1455;DHT22;721;48.168;12.818;2023-03-11T15:18:52;5.90;1.00
1455;DHT22;721;48.168;12.818;2023-03-11T15:21:22;5.90;1.00
1455;DHT22;721;48.168;12.818;2023-03-11T15:23:51;5.70;1.00
1455;DHT22;721;48.168;12.818;2023-03-11T15:26:21;5.70;1.00
1455;DHT22;721;48.168;12.818;2023-03-11T15:28:54;5.60;1.00
1455;DHT22;721;48.168;12.818;2023-03-11T15:31:28;5.80;1.00
1455;DHT22;721;48.168;12.818;2023-03-11T15:34:08;6.00;1.00
1455;DHT22;721;48.168;12.818;2023-03-11T15:36:38;6.10;1.00
1455;DHT22;721;48.168;12.818;2023-03-11T15:39:15;6.10;1.00
1455;DHT22;721;48.168;12.818;2023-03-11T15:41:45;6.20;1.00
1455;DHT22;721;48.168;12.818;2023-03-11T15:44:24;5.70;1.00
1455;DHT22;721;48.168;12.818;2023-03-11T15:46:51;5.70;1.00
1455;DHT22;721;48.168;12.818;2023-03-11T15:49:18;5.60;1.00
1455;DHT22;721;48.168;12.818;2023-03-11T15:51:46;5.50;1.00
1455;DHT22;721;48.168;12.818;2023-03-11T15:54:13;6.30;1.00
1455;DHT22;721;48.168;12.818;2023-03-11T15:56:40;5.40;1.00
1455;DHT22;721;48.168;12.818;2023-03-11T15:59:12;5.30;1.00
1455;DHT22;721;48.168;12.818;2023-03-11T16:01:39;5.10;1.00
1455;DHT22;721;48.168;12.818;2023-03-11T16:04:11;5.20;1.00
1455;DHT22;721;48.168;12.818;2023-03-11T16:06:39;5.40;1.00
1455;DHT22;721;48.168;12.818;2023-03-11T16:09:07;5.40;1.00
1455;DHT22;721;48.168;12.818;2023-03-11T16:11:34;5.50;1.00
1455;DHT22;721;48.168;12.818;2023-03-11T16:14:01;5.50;1.00
1455;DHT22;721;48.168;12.818;2023-03-11T16:16:28;5.20;1.00
1455;DHT22;721;48.168;12.818;2023-03-11T16:18:55;5.30;1.00
1455;DHT22;721;48.168;12.818;2023-03-11T16:21:24;5.10;1.00
1455;DHT22;721;48.168;12.818;2023-03-11T16:23:53;5.00;1.00
1455;DHT22;721;48.168;12.818;2023-03-11T16:26:21;5.00;1.00
1455;DHT22;721;48.168;12.818;2023-03-11T16:28:48;5.00;1.00
1455;DHT22;721;48.168;12.818;2023-03-11T16:31:15;4.80;1.00
1455;DHT22;721;48.168;12.818;2023-03-11T16:33:42;4.80;1.00
1455;DHT22;721;48.168;12.818;2023-03-11T16:36:10;4.60;1.00
1455;DHT22;721;48.168;12.818;2023-03-11T16:38:42;4.50;1.00
1455;DHT22;721;48.168;12.818;2023-03-11T16:41:09;4.30;1.00
1455;DHT22;721;48.168;12.818;2023-03-11T16:43:38;4.20;1.00
1455;DHT22;721;48.168;12.818;2023-03-11T16:46:04;4.30;1.00
1455;DHT22;721;48.168;12.818;2023-03-11T16:48:32;4.40;1.00
1455;DHT22;721;48.168;12.818;2023-03-11T16:50:58;4.30;1.00
1455;DHT22;721;48.168;12.818;2023-03-11T16:53:26;4.30;1.00
1455;DHT22;721;48.168;12.818;2023-03-11T16:55:53;4.40;1.00